createdAt,value
2019-04-20T00:01:26.308Z,13.83
2019-04-20T00:03:55.307Z,18.32
2019-04-20T00:06:31.754Z,18.17
2019-04-20T00:09:09.705Z,21.80
2019-04-20T00:11:50.241Z,21.35
2019-04-20T00:14:17.257Z,20.57
2019-04-20T00:16:46.052Z,21.97
2019-04-20T00:19:26.166Z,21.62
2019-04-20T00:21:59.587Z,22.00
2019-04-20T00:24:37.224Z,23.20
2019-04-20T00:27:32.850Z,23.75
2019-04-20T00:30:00.149Z,20.15
2019-04-20T00:32:29.529Z,22.10
2019-04-20T00:34:51.164Z,18.80
2019-04-20T00:37:23.439Z,16.87
2019-04-20T00:39:56.481Z,11.60
2019-04-20T00:42:33.960Z,11.37
2019-04-20T00:45:10.726Z,11.60
2019-04-20T00:47:45.399Z,12.10
2019-04-20T00:50:29.762Z,10.67
2019-04-20T00:52:55.597Z,11.20
2019-04-20T00:55:17.041Z,11.17
2019-04-20T00:57:55.341Z,12.43
2019-04-20T01:00:38.310Z,11.00
2019-04-20T01:03:15.787Z,11.28
2019-04-20T01:05:52.943Z,10.20
2019-04-20T01:08:08.173Z,10.37
2019-04-20T01:10:47.208Z,9.70
2019-04-20T01:13:18.696Z,10.13
2019-04-20T01:15:55.353Z,10.77
2019-04-20T01:18:24.054Z,9.43
2019-04-20T01:21:00.301Z,10.43
2019-04-20T01:23:38.225Z,9.75
2019-04-20T01:26:10.937Z,11.50
2019-04-20T01:28:54.203Z,10.73
2019-04-20T01:31:25.371Z,9.43
2019-04-20T01:33:56.591Z,9.47
2019-04-20T01:36:40.628Z,10.43
2019-04-20T01:39:09.214Z,9.63
2019-04-20T01:41:28.512Z,9.00
2019-04-20T01:44:00.583Z,9.40
2019-04-20T01:46:33.747Z,9.40
2019-04-20T01:49:11.501Z,8.67
2019-04-20T01:51:55.603Z,8.23
2019-04-20T01:54:29.858Z,8.20
2019-04-20T01:56:58.891Z,7.77
2019-04-20T01:59:37.095Z,8.47
2019-04-20T02:02:14.059Z,8.85
2019-04-20T02:04:47.311Z,8.10
2019-04-20T02:07:25.567Z,8.63
2019-04-20T02:09:58.295Z,8.67
2019-04-20T02:12:31.158Z,9.13
2019-04-20T02:15:04.326Z,8.27
2019-04-20T02:17:40.811Z,9.03
2019-04-20T02:20:28.696Z,9.43
2019-04-20T02:22:59.410Z,9.97
2019-04-20T02:25:18.555Z,10.13
2019-04-20T02:27:57.823Z,11.95
2019-04-20T02:31:06.340Z,11.40
2019-04-20T02:36:15.476Z,12.60
2019-04-20T02:39:05.860Z,12.97
2019-04-20T02:41:17.890Z,13.03
2019-04-20T02:46:24.835Z,10.07
2019-04-20T02:49:01.028Z,10.27
2019-04-20T02:51:35.460Z,10.63
2019-04-20T02:56:49.217Z,9.83
2019-04-20T02:59:43.226Z,10.67
2019-04-20T03:01:36.660Z,10.17
2019-04-20T03:03:54.938Z,10.47
2019-04-20T03:06:36.443Z,11.23
2019-04-20T03:09:20.370Z,10.07
2019-04-20T03:11:59.648Z,10.37
2019-04-20T03:14:21.790Z,10.47
2019-04-20T03:16:54.770Z,10.27
2019-04-20T03:19:23.679Z,11.20
2019-04-20T03:22:09.829Z,10.20
2019-04-20T03:24:43.928Z,9.40
2019-04-20T03:27:14.870Z,8.67
2019-04-20T03:29:46.976Z,9.33
2019-04-20T03:32:50.091Z,9.20
2019-04-20T03:35:08.132Z,9.47
2019-04-20T03:37:36.981Z,9.73
2019-04-20T03:39:56.817Z,10.80
2019-04-20T03:42:18.186Z,10.10
2019-04-20T03:44:57.068Z,10.47
2019-04-20T03:47:34.881Z,10.00
2019-04-20T03:50:18.526Z,10.70
2019-04-20T03:52:58.322Z,9.37
2019-04-20T03:55:44.574Z,9.87
2019-04-20T03:58:24.162Z,9.90
2019-04-20T04:01:16.309Z,10.00
2019-04-20T04:04:02.624Z,10.73
2019-04-20T04:06:24.262Z,10.90
2019-04-20T04:09:02.801Z,10.60
2019-04-20T04:11:37.904Z,10.93
2019-04-20T04:13:54.660Z,11.27
2019-04-20T04:16:32.822Z,10.30
2019-04-20T04:19:10.067Z,11.13
2019-04-20T04:21:46.824Z,12.00
2019-04-20T04:24:21.192Z,10.77
2019-04-20T04:26:55.997Z,11.77
2019-04-20T04:29:35.588Z,12.73
2019-04-20T04:32:12.091Z,12.53
2019-04-20T04:34:38.518Z,11.53
2019-04-20T04:37:17.624Z,13.10
2019-04-20T04:39:49.242Z,12.67
2019-04-20T04:42:37.808Z,10.50
2019-04-20T04:44:46.786Z,12.60
2019-04-20T04:47:13.396Z,11.83
2019-04-20T04:49:53.875Z,13.77
2019-04-20T04:52:27.524Z,15.10
2019-04-20T04:54:58.753Z,17.67
2019-04-20T04:57:24.838Z,16.23
2019-04-20T04:59:57.314Z,14.10
2019-04-20T05:02:39.335Z,13.90
2019-04-20T05:05:37.787Z,13.90
2019-04-20T05:08:01.883Z,10.60
2019-04-20T05:10:22.393Z,9.17
2019-04-20T05:12:54.814Z,9.20
2019-04-20T05:15:41.276Z,9.13
2019-04-20T05:18:20.659Z,9.00
2019-04-20T05:20:58.803Z,9.57
2019-04-20T05:23:28.078Z,8.93
2019-04-20T05:26:13.801Z,8.80
2019-04-20T05:28:48.607Z,8.97
2019-04-20T05:31:12.232Z,8.25
2019-04-20T05:34:10.847Z,7.53
2019-04-20T05:36:41.498Z,6.83
2019-04-20T05:39:23.587Z,6.67
2019-04-20T05:41:42.937Z,6.57
2019-04-20T05:44:17.029Z,6.50
2019-04-20T05:46:56.563Z,6.80
2019-04-20T05:49:33.123Z,6.77
2019-04-20T05:52:10.260Z,7.03
2019-04-20T05:54:39.099Z,6.13
2019-04-20T05:57:17.206Z,6.10
2019-04-20T05:59:54.305Z,6.20
2019-04-20T06:02:16.865Z,6.00
2019-04-20T06:04:59.959Z,7.70
2019-04-20T06:07:27.151Z,6.75
2019-04-20T06:09:59.422Z,7.35
2019-04-20T06:12:31.841Z,7.42
2019-04-20T06:15:09.467Z,7.25
2019-04-20T06:18:03.844Z,7.03
2019-04-20T06:20:41.221Z,7.12
2019-04-20T06:23:38.706Z,5.83
2019-04-20T06:26:33.548Z,6.83
2019-04-20T06:28:38.801Z,8.65
2019-04-20T06:31:26.697Z,5.97
2019-04-20T06:34:27.137Z,6.03
2019-04-20T06:36:49.829Z,5.65
2019-04-20T06:47:10.370Z,6.10
2019-04-20T06:49:40.618Z,5.92
2019-04-20T06:55:05.155Z,6.03
2019-04-20T07:00:15.634Z,6.50
2019-04-20T07:02:48.553Z,7.33
2019-04-20T07:08:00.762Z,6.45
2019-04-20T07:10:34.696Z,7.10
2019-04-20T07:12:59.804Z,6.97
2019-04-20T07:15:41.189Z,6.33
2019-04-20T07:18:25.407Z,6.50
2019-04-20T07:21:17.211Z,5.80
2019-04-20T07:23:35.255Z,5.50
2019-04-20T07:26:09.543Z,5.30
2019-04-20T07:31:08.476Z,5.35
2019-04-20T07:33:48.231Z,5.12
2019-04-20T07:36:27.976Z,4.62
2019-04-20T07:38:56.799Z,3.52
2019-04-20T07:41:33.183Z,3.30
2019-04-20T07:44:07.295Z,3.35
2019-04-20T07:46:47.500Z,4.10
2019-04-20T07:49:07.676Z,3.75
2019-04-20T07:51:26.602Z,4.00
2019-04-20T07:54:23.240Z,4.17
2019-04-20T07:56:50.507Z,3.60
2019-04-20T07:59:14.963Z,3.65
2019-04-20T08:02:15.971Z,3.25
2019-04-20T08:04:43.498Z,2.90
2019-04-20T08:07:03.524Z,2.60
2019-04-20T08:09:42.200Z,2.33
2019-04-20T08:12:51.796Z,2.20
2019-04-20T08:15:32.444Z,2.30
2019-04-20T08:18:10.380Z,2.95
2019-04-20T08:20:24.558Z,2.58
2019-04-20T08:23:12.275Z,2.40
2019-04-20T08:25:27.794Z,2.77
2019-04-20T08:28:13.567Z,2.75
2019-04-20T08:31:09.445Z,2.90
2019-04-20T08:34:04.415Z,3.00
2019-04-20T08:36:30.091Z,3.50
2019-04-20T08:41:28.901Z,2.70
2019-04-20T08:44:21.110Z,2.40
2019-04-20T08:46:45.566Z,2.77
2019-04-20T08:49:20.468Z,3.30
2019-04-20T08:51:59.952Z,2.80
2019-04-20T08:54:18.100Z,3.15
2019-04-20T08:56:43.439Z,2.87
2019-04-20T08:59:09.374Z,3.83
2019-04-20T09:01:44.479Z,4.30
2019-04-20T09:04:25.464Z,2.90
2019-04-20T09:07:04.468Z,3.55
2019-04-20T09:10:00.389Z,2.60
2019-04-20T09:12:15.860Z,2.92
2019-04-20T09:14:34.751Z,2.40
2019-04-20T09:17:11.459Z,2.35
2019-04-20T09:19:52.707Z,3.15
2019-04-20T09:22:40.618Z,3.50
2019-04-20T09:28:14.516Z,1.80
2019-04-20T09:30:51.183Z,1.55
2019-04-20T09:33:48.703Z,1.90
2019-04-20T09:36:18.240Z,1.87
2019-04-20T09:39:05.895Z,1.52
2019-04-20T09:41:58.953Z,3.05
2019-04-20T09:44:11.012Z,1.57
2019-04-20T09:46:48.987Z,25.60
2019-04-20T09:49:30.718Z,9.73
2019-04-20T09:52:06.609Z,5.33
2019-04-20T09:54:41.638Z,1.87
2019-04-20T09:57:21.313Z,13.45
2019-04-20T09:59:52.653Z,1.87
2019-04-20T10:02:11.240Z,7.50
2019-04-20T10:04:39.810Z,1.55
2019-04-20T10:07:17.637Z,2.52
2019-04-20T10:09:47.340Z,5.45
2019-04-20T10:12:20.151Z,14.23
2019-04-20T10:14:53.197Z,1.70
2019-04-20T10:17:27.217Z,1.90
2019-04-20T10:20:02.553Z,2.00
2019-04-20T10:22:32.929Z,1.77
2019-04-20T10:25:06.644Z,1.65
2019-04-20T10:27:40.612Z,2.05
2019-04-20T10:30:12.555Z,1.37
2019-04-20T10:32:47.175Z,1.40
2019-04-20T10:35:18.822Z,1.55
2019-04-20T10:38:05.312Z,1.30
2019-04-20T10:40:47.547Z,1.47
2019-04-20T10:43:12.018Z,1.60
2019-04-20T10:45:44.860Z,2.22
2019-04-20T10:48:17.315Z,1.50
2019-04-20T10:50:49.352Z,1.70
2019-04-20T10:53:21.827Z,1.62
2019-04-20T10:55:53.880Z,1.27
2019-04-20T10:58:25.686Z,1.98
2019-04-20T11:00:57.776Z,1.70
2019-04-20T11:03:29.779Z,1.45
2019-04-20T11:06:02.769Z,1.40
2019-04-20T11:08:34.918Z,2.00
2019-04-20T11:11:14.602Z,1.72
2019-04-20T11:13:41.466Z,1.90
2019-04-20T11:16:14.712Z,1.50
2019-04-20T11:18:47.305Z,1.80
2019-04-20T11:21:19.629Z,1.60
2019-04-20T11:23:54.038Z,1.45
2019-04-20T11:26:28.496Z,1.30
2019-04-20T11:29:00.600Z,1.40
2019-04-20T11:31:40.571Z,1.40
2019-04-20T11:34:06.060Z,1.37
2019-04-20T11:36:39.234Z,1.52
2019-04-20T11:39:12.820Z,1.40
2019-04-20T11:41:45.722Z,1.40
2019-04-20T11:44:17.933Z,1.20
2019-04-20T11:46:50.368Z,1.50
2019-04-20T11:49:23.558Z,1.50
2019-04-20T11:51:57.243Z,1.47
2019-04-20T11:54:30.430Z,1.40
2019-04-20T11:57:03.715Z,1.20
2019-04-20T11:59:37.031Z,1.20
2019-04-20T12:02:21.491Z,1.17
2019-04-20T12:04:59.929Z,1.70
2019-04-20T12:07:24.770Z,1.17
2019-04-20T12:09:58.498Z,1.42
2019-04-20T12:12:39.997Z,1.10
2019-04-20T12:15:04.497Z,1.50
2019-04-20T12:17:37.720Z,1.50
2019-04-20T12:20:10.184Z,1.17
2019-04-20T12:22:42.218Z,1.57
2019-04-20T12:25:14.665Z,1.42
2019-04-20T12:27:50.837Z,1.60
2019-04-20T12:30:21.748Z,1.40
2019-04-20T12:32:57.653Z,1.72
2019-04-20T12:35:27.372Z,1.47
2019-04-20T12:37:59.266Z,1.52
2019-04-20T12:40:32.357Z,1.47
2019-04-20T12:43:04.762Z,1.70
2019-04-20T12:45:37.792Z,1.40
2019-04-20T12:48:09.754Z,1.42
2019-04-20T12:50:41.839Z,1.42
2019-04-20T12:53:14.816Z,1.22
2019-04-20T12:55:46.830Z,1.32
2019-04-20T12:58:18.782Z,2.00
2019-04-20T13:00:54.237Z,1.30
2019-04-20T13:03:27.567Z,1.72
2019-04-20T13:05:59.483Z,1.27
2019-04-20T13:08:36.829Z,1.40
2019-04-20T13:11:10.988Z,1.57
2019-04-20T13:14:06.347Z,1.60
2019-04-20T13:16:39.073Z,1.62
2019-04-20T13:19:11.199Z,1.32
2019-04-20T13:21:43.233Z,1.95
2019-04-20T13:24:15.191Z,1.67
2019-04-20T13:26:49.001Z,2.45
2019-04-20T13:29:21.132Z,1.60
2019-04-20T13:31:54.590Z,2.00
2019-04-20T13:34:26.559Z,1.20
2019-04-20T13:36:58.530Z,1.20
2019-04-20T13:39:30.979Z,1.57
2019-04-20T13:42:11.426Z,1.50
2019-04-20T13:44:36.963Z,1.30
2019-04-20T13:47:09.153Z,1.10
2019-04-20T13:49:41.111Z,1.85
2019-04-20T13:52:12.962Z,1.25
2019-04-20T13:54:45.262Z,1.32
2019-04-20T13:57:24.537Z,1.32
2019-04-20T14:00:02.379Z,1.40
2019-04-20T14:02:42.643Z,1.55
2019-04-20T14:05:16.924Z,1.50
2019-04-20T14:07:49.313Z,1.17
2019-04-20T14:10:22.041Z,1.55
2019-04-20T14:13:01.717Z,1.50
2019-04-20T14:15:29.005Z,1.42
2019-04-20T14:18:02.256Z,1.50
2019-04-20T14:20:34.358Z,1.67
2019-04-20T14:23:07.395Z,1.40
2019-04-20T14:25:39.303Z,1.50
2019-04-20T14:28:11.381Z,1.67
2019-04-20T14:30:45.787Z,1.98
2019-04-20T14:33:18.954Z,1.42
2019-04-20T14:35:51.009Z,1.40
2019-04-20T14:38:24.063Z,1.20
2019-04-20T14:40:56.160Z,2.33
2019-04-20T14:43:30.217Z,1.90
2019-04-20T14:46:02.947Z,2.05
2019-04-20T14:48:36.514Z,2.00
2019-04-20T14:51:09.783Z,1.50
2019-04-20T14:53:43.188Z,1.62
2019-04-20T14:56:15.672Z,1.50
2019-04-20T14:58:47.276Z,1.60
2019-04-20T15:01:36.856Z,1.70
2019-04-20T15:04:13.458Z,2.45
2019-04-20T15:06:42.518Z,2.20
2019-04-20T15:09:14.794Z,2.12
2019-04-20T15:11:46.758Z,2.35
2019-04-20T15:14:18.795Z,1.90
2019-04-20T15:16:50.941Z,1.75
2019-04-20T15:19:25.409Z,2.10
2019-04-20T15:21:59.823Z,2.05
2019-04-20T15:24:31.756Z,1.50
2019-04-20T15:27:04.767Z,1.55
2019-04-20T15:29:38.159Z,1.52
2019-04-20T15:32:10.313Z,1.80
2019-04-20T15:34:42.693Z,2.42
2019-04-20T15:37:14.647Z,2.25
2019-04-20T15:39:47.832Z,2.08
2019-04-20T15:42:19.671Z,2.77
2019-04-20T15:44:51.634Z,3.02
2019-04-20T15:47:23.568Z,4.50
2019-04-20T15:49:55.984Z,3.62
2019-04-20T15:52:36.277Z,3.50
2019-04-20T15:55:10.315Z,2.83
2019-04-20T15:57:36.495Z,4.10
2019-04-20T16:00:10.766Z,2.92
2019-04-20T16:02:47.409Z,4.30
2019-04-20T16:05:22.036Z,4.58
2019-04-20T16:07:58.586Z,6.33
2019-04-20T16:10:28.591Z,3.92
2019-04-20T16:13:11.805Z,3.45
2019-04-20T16:15:35.848Z,2.45
2019-04-20T16:18:10.097Z,4.20
2019-04-20T16:20:50.701Z,4.70
2019-04-20T16:23:16.638Z,3.90
2019-04-20T16:26:07.801Z,4.12
2019-04-20T16:28:39.979Z,3.67
2019-04-20T16:31:14.104Z,6.28
2019-04-20T16:33:46.483Z,5.58
2019-04-20T16:36:18.733Z,3.75
2019-04-20T16:38:51.125Z,3.15
2019-04-20T16:41:24.273Z,3.12
2019-04-20T16:43:57.478Z,6.25
2019-04-20T16:46:30.101Z,6.15
2019-04-20T16:49:03.035Z,3.60
2019-04-20T16:51:34.965Z,4.03
2019-04-20T16:54:07.780Z,3.25
2019-04-20T16:56:39.604Z,4.67
2019-04-20T16:59:12.170Z,5.33
2019-04-20T17:01:44.944Z,4.03
2019-04-20T17:04:22.016Z,3.70
2019-04-20T17:07:10.176Z,4.25
2019-04-20T17:09:43.928Z,4.40
2019-04-20T17:12:15.834Z,4.12
2019-04-20T17:14:47.716Z,3.08
2019-04-20T17:17:19.774Z,3.70
2019-04-20T17:19:51.864Z,4.45
2019-04-20T17:22:23.855Z,5.28
2019-04-20T17:24:56.175Z,7.78
2019-04-20T17:27:46.793Z,10.32
2019-04-20T17:30:24.916Z,9.10
2019-04-20T17:33:02.252Z,9.35
2019-04-20T17:35:43.471Z,17.77
2019-04-20T17:38:08.946Z,19.35
2019-04-20T17:41:01.546Z,13.18
2019-04-20T17:43:25.363Z,13.50
2019-04-20T17:45:57.865Z,14.28
2019-04-20T17:48:37.148Z,11.68
2019-04-20T17:51:17.728Z,12.28
2019-04-20T17:53:44.659Z,12.65
2019-04-20T17:56:10.434Z,11.12
2019-04-20T17:58:43.872Z,9.90
2019-04-20T18:01:51.911Z,10.23
2019-04-20T18:04:41.836Z,12.33
2019-04-20T18:06:58.017Z,9.05
2019-04-20T18:09:44.914Z,10.20
2019-04-20T18:11:59.622Z,12.85
2019-04-20T18:14:43.091Z,12.23
2019-04-20T18:17:17.756Z,14.23
2019-04-20T18:19:41.242Z,12.98
2019-04-20T18:22:13.964Z,13.10
2019-04-20T18:25:10.411Z,11.38
2019-04-20T18:27:37.571Z,11.53
2019-04-20T18:30:11.720Z,11.22
2019-04-20T18:32:29.529Z,11.03
2019-04-20T18:35:06.973Z,10.80
2019-04-20T18:37:36.662Z,10.30
2019-04-20T18:40:14.421Z,9.80
2019-04-20T18:42:44.202Z,10.05
2019-04-20T18:45:29.608Z,9.93
2019-04-20T18:48:11.681Z,11.63
2019-04-20T18:50:32.869Z,10.85
2019-04-20T18:52:58.135Z,9.83
2019-04-20T18:55:40.942Z,12.18
2019-04-20T18:58:04.710Z,16.02
2019-04-20T19:00:41.896Z,16.15
2019-04-20T19:03:18.146Z,14.73
2019-04-20T19:05:43.915Z,16.42
2019-04-20T19:08:18.030Z,16.52
2019-04-20T19:10:57.560Z,15.35
2019-04-20T19:13:42.355Z,15.78
2019-04-20T19:16:31.264Z,17.20
2019-04-20T19:19:09.922Z,18.87
2019-04-20T19:21:35.429Z,18.82
2019-04-20T19:24:12.676Z,21.55
2019-04-20T19:26:44.955Z,23.77
2019-04-20T19:29:23.228Z,21.42
2019-04-20T19:32:07.298Z,26.60
2019-04-20T19:34:37.775Z,39.92
2019-04-20T19:37:04.084Z,34.33
2019-04-20T19:39:44.880Z,27.90
2019-04-20T19:42:18.183Z,85.30
2019-04-20T19:44:51.624Z,42.73
2019-04-20T19:47:28.420Z,34.35
2019-04-20T19:49:56.502Z,31.60
2019-04-20T19:52:43.355Z,27.45
2019-04-20T19:55:10.586Z,26.60
2019-04-20T19:57:42.925Z,24.52
2019-04-20T19:59:58.726Z,21.80
2019-04-20T20:02:31.900Z,22.58
2019-04-20T20:05:08.712Z,22.70
2019-04-20T20:07:42.616Z,24.30
2019-04-20T20:10:12.864Z,23.25
2019-04-20T20:12:49.683Z,28.12
2019-04-20T20:15:26.157Z,36.85
2019-04-20T20:18:11.222Z,33.18
2019-04-20T20:20:47.450Z,31.95
2019-04-20T20:23:00.694Z,29.12
2019-04-20T20:25:37.319Z,29.72
2019-04-20T20:28:25.873Z,29.07
2019-04-20T20:30:53.817Z,31.33
2019-04-20T20:33:27.837Z,33.28
2019-04-20T20:35:58.546Z,34.83
2019-04-20T20:38:27.972Z,32.13
2019-04-20T20:41:05.709Z,25.95
2019-04-20T20:43:40.754Z,20.60
2019-04-20T20:46:18.418Z,19.87
2019-04-20T20:49:00.518Z,18.05
2019-04-20T20:51:34.617Z,16.02
2019-04-20T20:53:54.400Z,14.18
2019-04-20T20:56:24.403Z,17.50
2019-04-20T20:59:01.799Z,15.93
2019-04-20T21:01:27.525Z,15.18
2019-04-20T21:03:58.513Z,16.10
2019-04-20T21:06:32.857Z,13.58
2019-04-20T21:09:06.258Z,11.30
2019-04-20T21:11:40.157Z,11.65
2019-04-20T21:14:21.052Z,10.90
2019-04-20T21:16:57.605Z,10.88
2019-04-20T21:19:35.303Z,11.40
2019-04-20T21:22:04.462Z,11.18
2019-04-20T21:24:30.286Z,10.70
2019-04-20T21:27:08.862Z,11.88
2019-04-20T21:29:45.361Z,11.90
2019-04-20T21:32:14.369Z,11.97
2019-04-20T21:34:49.305Z,12.58
2019-04-20T21:37:20.084Z,14.03
2019-04-20T21:39:56.041Z,13.13
2019-04-20T21:42:28.186Z,12.65
2019-04-20T21:45:08.127Z,13.55
2019-04-20T21:47:36.294Z,13.40
2019-04-20T21:50:27.124Z,12.35
2019-04-20T21:52:46.671Z,12.85
2019-04-20T21:55:16.191Z,12.47
2019-04-20T21:57:51.687Z,12.35
2019-04-20T22:00:39.790Z,12.15
2019-04-20T22:03:11.281Z,13.38
2019-04-20T22:05:42.323Z,15.13
2019-04-20T22:08:16.444Z,15.20
2019-04-20T22:10:50.294Z,16.00
2019-04-20T22:13:28.224Z,16.12
2019-04-20T22:16:02.015Z,18.23
2019-04-20T22:18:31.872Z,19.57
2019-04-20T22:21:12.817Z,20.90
2019-04-20T22:23:57.232Z,24.00
2019-04-20T22:26:24.339Z,26.77
2019-04-20T22:28:44.576Z,26.17
2019-04-20T22:31:16.463Z,23.10
2019-04-20T22:33:48.832Z,19.60
2019-04-20T22:36:25.977Z,19.40
2019-04-20T22:39:09.807Z,19.25
2019-04-20T22:41:52.441Z,19.30
2019-04-20T22:44:22.456Z,19.00
2019-04-20T22:46:54.279Z,22.40
2019-04-20T22:49:41.348Z,22.50
2019-04-20T22:52:13.267Z,23.40
2019-04-20T22:54:48.874Z,24.20
2019-04-20T22:57:19.344Z,23.98
2019-04-20T22:59:52.448Z,26.12
2019-04-20T23:02:16.285Z,32.42
2019-04-20T23:04:48.810Z,35.08
2019-04-20T23:07:20.981Z,34.95
2019-04-20T23:09:56.448Z,36.17
2019-04-20T23:12:27.570Z,35.73
2019-04-20T23:15:00.478Z,30.43
2019-04-20T23:17:39.811Z,35.05
2019-04-20T23:20:15.351Z,30.80
2019-04-20T23:22:45.660Z,33.50
2019-04-20T23:25:15.404Z,37.28
2019-04-20T23:27:51.174Z,35.55
2019-04-20T23:30:26.230Z,33.50
2019-04-20T23:32:55.942Z,29.85
2019-04-20T23:35:28.653Z,25.72
2019-04-20T23:38:08.404Z,24.95
2019-04-20T23:40:35.070Z,25.23
2019-04-20T23:43:28.176Z,24.30
2019-04-20T23:46:20.942Z,26.42
2019-04-20T23:49:13.550Z,19.55
2019-04-20T23:51:59.152Z,16.25
2019-04-20T23:54:20.196Z,17.77
2019-04-20T23:56:48.002Z,22.63
2019-04-20T23:59:30.667Z,25.60
